Time;durP1;ratioP1;P1;durP2;ratioP2;P2;SDS_P1;SDS_P2;PMS_P1;PMS_P2;Temp;Humidity;BMP_temperature;BMP_pressure;BME280_temperature;BME280_humidity;BME280_pressure;Samples;Min_cycle;Max_cycle;Signal;HPM_P1;HPM_P2
2022/12/23 00:01:51;;;;;;;15.27;3.90;;;13.50;99.90;;;12.71;100.00;100848.09;4169077;28;20071;-71
2022/12/23 00:03:57;;;;;;;12.15;2.63;;;13.50;99.90;;;12.72;100.00;100849.75;4167743;28;20536;-71
2022/12/23 00:05:59;;;;;;;13.75;2.65;;;13.50;99.90;;;12.72;100.00;100842.63;4167944;28;20061;-71
2022/12/23 00:08:00;;;;;;;16.10;2.67;;;13.50;99.90;;;12.70;100.00;100846.44;4168914;28;20029;-71
2022/12/23 00:10:02;;;;;;;12.10;2.60;;;13.50;99.90;;;12.71;100.00;100850.75;4167899;28;20040;-71
2022/12/23 00:16:42;;;;;;;9.52;2.58;;;13.50;99.90;;;12.70;100.00;100857.03;4168810;28;20060;-71
2022/12/23 00:18:43;;;;;;;13.38;2.80;;;13.50;99.90;;;12.74;100.00;100861.81;4168715;28;20025;-71
2022/12/23 00:20:44;;;;;;;13.93;2.40;;;13.50;99.90;;;12.72;100.00;100858.50;4168924;28;20049;-70
2022/12/23 00:23:03;;;;;;;12.57;2.30;;;13.50;99.90;;;12.69;100.00;100850.91;4167784;28;20500;-71
2022/12/23 00:25:05;;;;;;;8.65;2.30;;;13.50;99.90;;;12.69;100.00;100860.69;4169020;28;20504;-71
2022/12/23 00:27:05;;;;;;;8.05;2.08;;;13.50;99.90;;;12.69;100.00;100852.75;4168934;28;20032;-71
2022/12/23 00:29:06;;;;;;;8.13;1.80;;;13.40;99.90;;;12.67;100.00;100854.72;4168633;28;20432;-71
2022/12/23 00:31:08;;;;;;;9.18;1.80;;;13.50;99.90;;;12.72;100.00;100860.34;4167717;28;20025;-71
2022/12/23 00:33:09;;;;;;;11.95;2.03;;;13.40;99.90;;;12.69;100.00;100855.38;4168566;28;20033;-71
2022/12/23 00:35:10;;;;;;;17.30;2.33;;;13.50;99.90;;;12.73;100.00;100851.38;4168842;28;20029;-71
2022/12/23 00:37:11;;;;;;;10.85;3.00;;;13.50;99.90;;;12.72;100.00;100857.69;4168547;28;20044;-71
2022/12/23 00:43:51;;;;;;;17.48;3.35;;;13.50;99.90;;;12.61;100.00;100853.56;4167754;28;20037;-71
2022/12/23 00:45:53;;;;;;;13.68;3.80;;;13.40;99.90;;;12.68;100.00;100854.56;4168773;28;20025;-71
2022/12/23 00:50:13;;;;;;;12.93;3.17;;;13.50;99.90;;;12.68;100.00;100853.72;4169202;28;20032;-71
2022/12/23 00:52:14;;;;;;;20.30;3.33;;;13.50;99.90;;;12.66;100.00;100866.31;4172401;28;20080;-71
2022/12/23 00:54:16;;;;;;;17.10;3.33;;;13.50;99.90;;;12.70;100.00;100857.03;4162042;28;20025;-71
2022/12/23 00:56:17;;;;;;;15.68;3.67;;;13.50;99.90;;;12.71;100.00;100863.97;4166779;28;20029;-71
2022/12/23 00:58:20;;;;;;;21.75;4.47;;;13.50;99.90;;;12.69;100.00;100853.53;4171822;28;20041;-70
2022/12/23 01:05:35;;;;;;;15.85;3.25;;;13.50;99.90;;;12.69;100.00;100856.19;4170747;28;20485;-70
2022/12/23 01:07:22;;;;;;;16.45;3.30;;;13.50;99.90;;;12.73;100.00;100861.97;4171917;28;20039;-71
2022/12/23 01:09:23;;;;;;;12.95;2.63;;;13.50;99.90;;;12.73;100.00;100846.94;4172094;28;20041;-71
2022/12/23 01:11:24;;;;;;;10.85;2.78;;;13.50;99.90;;;12.75;100.00;100849.44;4170452;28;20052;-71
2022/12/23 01:13:25;;;;;;;16.83;3.08;;;13.50;99.90;;;12.74;100.00;100835.34;4171893;28;20544;-71
2022/12/23 01:15:26;;;;;;;13.93;2.30;;;13.50;99.90;;;12.85;100.00;100847.41;4171429;28;20064;-71
2022/12/23 01:17:26;;;;;;;15.48;3.55;;;13.60;99.90;;;12.80;100.00;100847.09;4170421;28;20569;-71
2022/12/23 01:19:27;;;;;;;7.57;2.20;;;13.60;99.90;;;12.83;100.00;100843.28;4171879;28;20034;-71
2022/12/23 01:21:28;;;;;;;15.35;2.72;;;13.60;99.90;;;12.81;100.00;100850.56;4170516;28;20064;-71
2022/12/23 01:23:29;;;;;;;11.00;2.42;;;13.60;99.90;;;12.82;100.00;100853.03;4170422;28;20026;-71
2022/12/23 01:25:31;;;;;;;18.70;2.55;;;13.60;99.90;;;12.82;100.00;100853.03;4171617;28;20025;-71
2022/12/23 01:27:32;;;;;;;9.65;2.38;;;13.60;99.90;;;12.88;100.00;100852.38;4170299;28;20034;-71
2022/12/23 01:29:33;;;;;;;10.75;2.33;;;13.60;99.90;;;12.84;100.00;100832.53;4171559;28;20527;-71
2022/12/23 01:31:33;;;;;;;13.68;3.15;;;13.70;99.90;;;12.90;100.00;100841.63;4153802;28;20029;-71
2022/12/23 01:33:34;;;;;;;12.40;3.42;;;13.60;99.90;;;12.91;100.00;100840.59;4171206;28;20026;-71
2022/12/23 01:35:35;;;;;;;11.18;2.88;;;13.70;99.90;;;12.90;100.00;100845.09;4171401;28;20044;-71
2022/12/23 01:37:36;;;;;;;12.85;2.90;;;13.70;99.90;;;12.97;100.00;100847.88;4170310;28;20021;-71
2022/12/23 01:39:37;;;;;;;12.77;3.08;;;13.70;99.90;;;12.91;100.00;100832.66;4170342;28;20037;-71
2022/12/23 01:44:54;;;;;;;13.25;3.55;;;13.70;99.90;;;13.05;100.00;100838.09;4137012;28;20057;-71
2022/12/23 01:46:55;;;;;;;17.00;3.65;;;13.70;99.90;;;12.95;100.00;100839.28;4163283;28;20095;-71
2022/12/23 01:48:56;;;;;;;20.08;4.07;;;13.70;99.90;;;13.01;100.00;100834.16;4170049;28;20033;-71
2022/12/23 01:51:03;;;;;;;13.23;3.15;;;13.70;99.90;;;12.96;100.00;100841.75;4170078;28;20032;-71
2022/12/23 01:53:07;;;;;;;15.05;4.10;;;13.80;99.90;;;12.96;100.00;100847.03;4170219;28;20518;-71
2022/12/23 01:55:09;;;;;;;21.02;3.47;;;13.70;99.90;;;12.98;100.00;100847.72;4156312;28;20056;-71
2022/12/23 01:57:10;;;;;;;18.50;4.05;;;13.80;99.90;;;12.93;100.00;100844.72;4171271;28;20036;-71
2022/12/23 02:03:41;;;;;;;17.70;3.53;;;13.80;99.90;;;12.91;100.00;100830.84;4171053;28;20556;-71
2022/12/23 02:04:12;;;;;;;9.95;4.15;;;13.70;99.90;;;12.88;100.00;100819.75;4169828;28;20132;-71
2022/12/23 02:11:43;;;;;;;15.00;3.63;;;13.60;99.90;;;12.87;100.00;100840.16;4170755;28;20063;-71
2022/12/23 02:16:52;;;;;;;13.63;2.90;;;13.60;99.90;;;12.85;100.00;100828.88;4160351;28;20107;-71
2022/12/23 02:19:16;;;;;;;11.23;3.50;;;13.60;99.90;;;12.85;100.00;100833.34;4169569;28;20412;-71
2022/12/23 02:21:44;;;;;;;15.00;3.08;;;13.60;99.90;;;12.85;100.00;100834.16;4169565;28;20456;-71
2022/12/23 02:24:24;;;;;;;14.55;3.00;;;13.60;99.90;;;12.90;100.00;100828.38;4169697;28;20056;-71
2022/12/23 02:27:06;;;;;;;26.63;5.03;;;13.70;99.90;;;12.73;100.00;100812.53;4170631;28;20036;-71
2022/12/23 02:29:21;;;;;;;24.33;3.90;;;13.60;99.90;;;12.72;100.00;100813.50;4169137;28;20033;-71
2022/12/23 02:32:01;;;;;;;21.60;4.30;;;13.60;99.90;;;12.72;100.00;100813.50;4170542;28;20037;-71
2022/12/23 02:34:22;;;;;;;18.88;4.28;;;13.50;99.90;;;12.71;100.00;100813.69;4170532;28;20483;-71
2022/12/23 02:36:37;;;;;;;19.13;4.10;;;13.50;99.90;;;12.74;100.00;100808.06;4169308;28;20027;-71
2022/12/23 02:39:10;;;;;;;19.90;3.65;;;13.50;99.90;;;12.71;100.00;100805.75;4170303;28;20061;-71
2022/12/23 02:41:41;;;;;;;15.73;4.20;;;13.50;99.90;;;12.73;100.00;100798.44;4170400;28;20048;-71
2022/12/23 02:43:45;;;;;;;19.05;3.28;;;13.50;99.90;;;12.73;100.00;100787.88;4163475;28;20045;-71
2022/12/23 02:45:52;;;;;;;21.88;3.95;;;13.50;99.90;;;12.72;100.00;100784.38;4170401;28;20036;-71
2022/12/23 02:48:18;;;;;;;16.67;3.05;;;13.50;99.90;;;12.70;100.00;100785.56;4170127;28;20084;-72
2022/12/23 02:50:27;;;;;;;13.15;2.38;;;13.50;99.90;;;12.68;100.00;100791.03;4169038;28;20532;-71
2022/12/23 02:52:33;;;;;;;10.75;2.38;;;13.50;99.90;;;12.80;100.00;100786.22;4169230;28;20108;-71
2022/12/23 02:54:51;;;;;;;8.07;2.25;;;13.50;99.90;;;12.79;100.00;100787.19;4168863;28;20029;-72
2022/12/23 02:56:54;;;;;;;10.02;2.38;;;13.60;99.90;;;12.77;100.00;100787.38;4156148;28;20108;-71
2022/12/23 02:59:08;;;;;;;9.80;2.30;;;13.60;99.90;;;12.77;100.00;100787.38;4168829;28;20105;-71
2022/12/23 03:01:13;;;;;;;8.75;2.05;;;13.50;99.90;;;12.73;100.00;100785.22;4168894;28;20040;-71
2022/12/23 03:03:16;;;;;;;12.30;2.10;;;13.60;99.90;;;12.78;100.00;100780.28;4168542;28;20049;-71
2022/12/23 03:05:44;;;;;;;6.18;1.98;;;13.60;99.90;;;12.85;100.00;100783.03;4169898;28;20025;-71
2022/12/23 03:07:45;;;;;;;7.28;1.50;;;13.60;99.90;;;12.91;100.00;100782.34;4167784;28;20029;-71
2022/12/23 03:10:19;;;;;;;6.90;1.50;;;13.60;99.90;;;12.89;100.00;100763.19;4152314;28;20069;-71
2022/12/23 03:13:10;;;;;;;3.73;1.33;;;13.70;99.90;;;12.96;100.00;100762.31;4169903;28;20039;-71
2022/12/23 03:15:37;;;;;;;3.40;1.40;;;13.70;99.90;;;12.91;100.00;100767.31;4168557;28;20120;-71
2022/12/23 03:17:58;;;;;;;5.53;1.15;;;13.70;99.90;;;12.95;100.00;100771.28;4168235;28;20088;-71
2022/12/23 03:20:19;;;;;;;5.53;1.75;;;13.70;99.90;;;12.92;100.00;100771.63;4169874;28;20033;-71
2022/12/23 03:22:48;;;;;;;5.25;1.40;;;13.70;99.90;;;12.90;100.00;100764.84;4168556;28;20036;-71
2022/12/23 03:25:13;;;;;;;5.47;1.70;;;13.70;99.90;;;12.99;100.00;100777.84;4168818;28;20033;-71
2022/12/23 03:27:16;;;;;;;8.82;1.20;;;13.70;99.90;;;13.02;100.00;100772.22;4169671;28;20065;-71
2022/12/23 03:29:33;;;;;;;5.75;1.50;;;13.70;99.90;;;12.96;100.00;100764.97;4169922;28;20029;-71
2022/12/23 03:31:37;;;;;;;4.40;1.70;;;13.80;99.90;;;12.99;100.00;100754.03;4168480;28;20063;-71
2022/12/23 03:33:45;;;;;;;7.80;1.67;;;13.70;99.90;;;12.99;100.00;100743.44;4169364;28;20170;-71
2022/12/23 03:35:56;;;;;;;7.07;2.95;;;13.70;99.90;;;12.94;100.00;100753.72;4168191;28;20509;-72
2022/12/23 03:38:01;;;;;;;8.18;2.10;;;13.80;99.90;;;12.91;100.00;100734.69;4168368;28;20100;-71
2022/12/23 03:40:21;;;;;;;10.90;2.33;;;13.80;99.90;;;12.95;100.00;100734.22;4168327;28;20456;-71
2022/12/23 03:42:32;;;;;;;7.35;1.50;;;13.70;99.90;;;12.93;100.00;100725.59;4168404;28;20092;-71
2022/12/23 03:44:39;;;;;;;10.55;2.35;;;13.70;99.90;;;12.93;100.00;100733.53;4168207;28;20588;-71
2022/12/23 03:47:01;;;;;;;11.15;2.40;;;13.70;99.90;;;12.93;100.00;100741.47;4168301;28;20025;-71
2022/12/23 03:49:10;;;;;;;12.40;2.35;;;13.70;99.90;;;12.94;100.00;100753.72;4168315;28;20545;-71
2022/12/23 03:51:20;;;;;;;15.70;3.03;;;13.70;99.90;;;12.98;100.00;100760.34;4169398;28;20042;-71
2022/12/23 03:53:38;;;;;;;17.92;3.78;;;13.70;99.90;;;12.92;100.00;100754.91;4167962;28;20030;-71
2022/12/23 03:55:54;;;;;;;21.50;4.05;;;13.70;99.90;;;12.95;100.00;100771.28;4167993;28;20033;-71
2022/12/23 03:58:18;;;;;;;24.98;3.95;;;13.70;99.90;;;12.94;100.00;100764.31;4168077;28;20033;-71
2022/12/23 04:00:19;;;;;;;25.33;3.72;;;13.70;99.90;;;12.95;100.00;100770.44;4168060;28;20032;-71
2022/12/23 04:02:58;;;;;;;28.08;4.32;;;13.70;99.90;;;12.94;100.00;100744.94;4150830;28;20025;-71
2022/12/23 04:05:11;;;;;;;21.77;4.68;;;13.70;99.90;;;12.97;100.00;100747.25;4158663;28;20053;-71
2022/12/23 04:07:43;;;;;;;24.60;5.07;;;13.70;99.90;;;12.97;100.00;100734.03;4169242;28;20029;-71
2022/12/23 04:09:45;;;;;;;32.13;5.88;;;13.70;99.90;;;12.94;100.00;100751.06;4154429;28;20741;-71
2022/12/23 04:11:46;;;;;;;30.60;5.90;;;13.70;99.90;;;12.95;100.00;100765.97;4167877;28;20055;-71
2022/12/23 04:13:47;;;;;;;28.23;5.75;;;13.70;99.90;;;13.00;100.00;100768.94;4167898;28;20039;-71
2022/12/23 04:15:49;;;;;;;26.90;5.78;;;13.70;99.90;;;12.97;100.00;100755.19;4167392;28;20124;-71
2022/12/23 04:17:51;;;;;;;37.47;7.00;;;13.80;99.90;;;12.95;100.00;100762.50;4167584;28;20459;-71
2022/12/23 04:19:53;;;;;;;38.28;7.32;;;13.70;99.90;;;13.05;100.00;100755.19;4167720;28;20037;-71
2022/12/23 04:21:56;;;;;;;38.08;8.48;;;13.70;99.90;;;13.02;100.00;100772.22;4168800;28;20025;-71
2022/12/23 04:23:57;;;;;;;35.37;7.57;;;13.70;99.90;;;13.03;100.00;100775.69;4167684;28;20025;-71
2022/12/23 04:25:58;;;;;;;36.63;8.25;;;13.80;99.90;;;13.00;100.00;100753.03;4150286;28;20034;-71
2022/12/23 04:27:59;;;;;;;32.30;7.38;;;13.80;99.90;;;13.07;100.00;100763.78;4167650;28;20049;-71
2022/12/23 04:29:59;;;;;;;34.25;7.78;;;13.80;99.90;;;13.04;100.00;100758.81;4167781;28;20109;-71
2022/12/23 04:32:00;;;;;;;31.67;7.00;;;13.80;99.90;;;13.07;100.00;100746.06;4168426;28;20091;-71
2022/12/23 04:34:01;;;;;;;37.88;6.70;;;13.80;99.90;;;13.05;100.00;100748.06;4168780;28;20099;-71
2022/12/23 04:36:02;;;;;;;29.83;6.97;;;13.80;99.90;;;13.09;100.00;100745.91;4168626;28;20053;-71
2022/12/23 04:38:03;;;;;;;32.05;7.13;;;13.80;99.90;;;13.04;100.00;100738.47;4167546;28;20489;-71
2022/12/23 04:40:05;;;;;;;31.55;6.28;;;13.80;99.90;;;13.03;100.00;100736.81;4168683;28;20080;-71
2022/12/23 04:42:06;;;;;;;24.77;5.30;;;13.80;99.90;;;13.02;100.00;100721.91;4150851;28;20026;-71
2022/12/23 04:44:07;;;;;;;23.65;3.70;;;13.80;99.90;;;13.09;100.00;100727.38;4167603;28;20044;-71
2022/12/23 04:46:08;;;;;;;19.90;4.57;;;13.80;99.90;;;13.07;100.00;100732.84;4167307;28;20400;-71
2022/12/23 04:48:09;;;;;;;15.45;3.75;;;13.80;99.90;;;13.07;100.00;100727.53;4167193;28;20531;-71
2022/12/23 04:50:14;;;;;;;13.32;3.35;;;13.80;99.90;;;13.05;100.00;100712.81;4167487;28;20092;-71
2022/12/23 04:52:15;;;;;;;17.63;2.70;;;13.80;99.90;;;13.02;100.00;100695.44;4167691;28;20029;-71
2022/12/23 04:54:16;;;;;;;12.13;2.30;;;13.80;99.90;;;13.05;100.00;100697.72;4158951;28;20480;-72
2022/12/23 04:56:17;;;;;;;10.23;2.72;;;13.80;99.90;;;13.13;100.00;100703.03;4167609;28;20072;-71
2022/12/23 04:58:20;;;;;;;10.15;2.33;;;13.90;99.90;;;13.07;100.00;100698.41;4168591;28;20486;-71
2022/12/23 05:00:21;;;;;;;13.50;2.40;;;13.80;99.90;;;13.03;100.00;100701.56;4168593;28;20049;-70
2022/12/23 05:02:22;;;;;;;7.82;2.65;;;13.80;99.90;;;13.09;100.00;100703.53;4168169;28;20033;-71
2022/12/23 05:04:23;;;;;;;11.15;1.92;;;13.80;99.90;;;13.07;100.00;100694.94;4166040;28;20452;-71
2022/12/23 05:06:24;;;;;;;9.13;2.03;;;13.80;99.90;;;13.09;100.00;100696.44;4168617;28;20080;-71
2022/12/23 05:08:26;;;;;;;7.97;1.52;;;13.80;99.90;;;13.02;100.00;100692.78;4167447;28;20048;-71
2022/12/23 05:10:27;;;;;;;7.53;1.48;;;13.80;99.90;;;13.01;100.00;100682.38;4168474;28;20032;-71
2022/12/23 05:12:29;;;;;;;6.53;1.98;;;13.80;99.90;;;13.00;100.00;100694.78;4168419;28;20405;-71
2022/12/23 05:14:30;;;;;;;7.47;1.40;;;13.80;99.90;;;12.99;100.00;100687.03;4168237;28;20026;-71
2022/12/23 05:16:32;;;;;;;6.82;1.38;;;13.80;99.90;;;13.01;100.00;100683.22;4167114;28;20049;-71
2022/12/23 05:18:33;;;;;;;4.63;1.10;;;13.80;99.90;;;12.96;100.00;100669.66;4150667;28;20113;-71
2022/12/23 05:20:34;;;;;;;7.57;1.20;;;13.80;99.90;;;12.95;100.00;100669.84;4162264;28;20557;-71
2022/12/23 05:22:35;;;;;;;6.03;0.80;;;13.80;99.90;;;12.97;100.00;100667.81;4168267;28;20026;-71
2022/12/23 05:24:36;;;;;;;5.07;1.00;;;13.70;99.90;;;12.96;100.00;100661.69;4167215;28;20036;-71
2022/12/23 05:26:36;;;;;;;3.08;1.00;;;13.80;99.90;;;12.95;100.00;100669.84;4168354;28;20049;-71
2022/12/23 05:28:37;;;;;;;4.68;0.60;;;13.70;99.90;;;13.04;100.00;100674.91;4167113;28;20029;-71
2022/12/23 05:30:38;;;;;;;1.52;0.65;;;13.80;99.90;;;13.02;100.00;100665.50;4167029;28;20021;-71
2022/12/23 05:32:39;;;;;;;3.45;0.60;;;13.80;99.90;;;13.03;100.00;100685.66;4166977;28;20533;-71
2022/12/23 05:34:40;;;;;;;3.80;0.68;;;13.80;99.90;;;13.04;100.00;100666.16;4168233;28;20053;-71
2022/12/23 05:36:41;;;;;;;3.00;0.45;;;13.80;99.90;;;13.02;100.00;100666.31;4169201;28;20420;-71
2022/12/23 05:38:42;;;;;;;6.28;1.20;;;13.80;99.90;;;13.12;100.00;100669.59;4171401;28;20032;-71
2022/12/23 05:40:42;;;;;;;5.13;1.20;;;13.80;99.90;;;13.12;100.00;100674.06;4170011;28;20057;-71
2022/12/23 05:42:44;;;;;;;4.10;0.95;;;13.80;99.90;;;13.11;100.00;100665.28;4171310;28;20026;-71
2022/12/23 05:44:45;;;;;;;5.22;1.20;;;13.80;99.90;;;13.10;100.00;100658.38;4169998;28;20018;-71
2022/12/23 05:46:46;;;;;;;4.55;1.10;;;13.80;99.90;;;13.14;100.00;100659.66;4169741;28;20025;-71
2022/12/23 05:48:46;;;;;;;3.13;1.17;;;13.90;99.90;;;13.11;100.00;100654.69;4171476;28;20358;-71
2022/12/23 05:50:52;;;;;;;6.97;1.20;;;13.90;99.90;;;13.13;100.00;100654.53;4170035;28;20044;-71
2022/12/23 05:52:54;;;;;;;4.28;1.50;;;13.90;99.90;;;13.17;100.00;100640.75;4153489;28;20520;-71
2022/12/23 05:54:55;;;;;;;8.48;1.85;;;13.90;99.90;;;13.15;100.00;100653.38;4170869;28;20473;-71
2022/12/23 05:56:56;;;;;;;9.10;1.85;;;13.90;99.90;;;13.18;100.00;100644.25;4169863;28;20078;-71
2022/12/23 05:58:57;;;;;;;10.82;2.92;;;13.90;99.90;;;13.18;100.00;100650.38;4169892;28;20044;-71
2022/12/23 06:01:00;;;;;;;12.95;2.92;;;13.90;99.90;;;13.20;100.00;100664.25;4171125;28;20052;-71
2022/12/23 06:03:02;;;;;;;11.95;2.22;;;13.80;99.90;;;13.16;100.00;100633.00;4170847;28;20554;-71
2022/12/23 06:05:03;;;;;;;11.93;2.35;;;13.90;99.90;;;13.15;100.00;100642.78;4170989;28;20457;-71
2022/12/23 06:07:04;;;;;;;12.40;2.60;;;13.90;99.90;;;13.19;100.00;100625.53;4170554;28;20017;-71
2022/12/23 06:09:05;;;;;;;20.27;3.42;;;13.90;99.90;;;13.24;100.00;100632.94;4169731;28;20536;-71
2022/12/23 06:11:06;;;;;;;17.17;3.75;;;13.90;99.90;;;13.18;100.00;100645.06;4169558;28;20033;-71
2022/12/23 06:13:07;;;;;;;14.68;3.05;;;13.90;99.90;;;13.20;100.00;100627.16;4170932;28;20033;-71
2022/12/23 06:15:09;;;;;;;21.48;4.03;;;13.90;99.90;;;13.15;100.00;100628.69;4169487;28;20148;-71
2022/12/23 06:17:10;;;;;;;18.88;3.65;;;13.90;99.90;;;13.28;100.00;100624.47;4169206;28;20506;-71
2022/12/23 06:19:11;;;;;;;17.67;3.53;;;13.90;99.90;;;13.27;100.00;100620.19;4170630;28;20051;-71
2022/12/23 06:21:12;;;;;;;12.40;3.00;;;14.00;99.90;;;13.23;100.00;100616.22;4170905;28;20030;-71
2022/12/23 06:23:13;;;;;;;18.55;3.33;;;13.90;99.90;;;13.15;100.00;100618.94;4170693;28;20035;-71
2022/12/23 06:25:14;;;;;;;19.48;4.28;;;13.90;99.90;;;13.16;100.00;100620.59;4152981;28;20018;-71
2022/12/23 06:27:16;;;;;;;22.95;5.72;;;13.90;99.90;;;13.18;100.00;100626.53;4170499;28;20108;-71
2022/12/23 06:29:17;;;;;;;16.30;3.63;;;13.90;99.90;;;13.18;100.00;100623.88;4169489;28;20029;-71
2022/12/23 06:31:18;;;;;;;18.48;4.03;;;13.90;99.90;;;13.14;100.00;100627.06;4169394;28;20029;-71
2022/12/23 06:33:19;;;;;;;17.45;4.15;;;13.90;99.90;;;13.22;100.00;100633.13;4168995;28;20076;-71
2022/12/23 06:35:20;;;;;;;16.88;3.60;;;13.90;99.90;;;13.23;100.00;100632.13;4170298;28;20025;-71
2022/12/23 06:37:20;;;;;;;22.92;3.85;;;13.90;99.90;;;13.14;100.00;100619.91;4169227;28;20567;-71
2022/12/23 06:39:21;;;;;;;18.58;5.50;;;13.90;99.90;;;13.09;100.00;100630.22;4169350;28;20064;-71
2022/12/23 06:41:22;;;;;;;20.55;4.28;;;13.90;99.90;;;13.17;100.00;100632.81;4169157;28;20044;-70
2022/12/23 06:43:23;;;;;;;19.52;4.30;;;13.90;99.90;;;13.09;100.00;100635.53;4170572;28;20032;-71
2022/12/23 06:45:24;;;;;;;26.75;4.70;;;13.90;99.90;;;13.16;100.00;100641.78;4169111;28;20032;-71
2022/12/23 06:47:25;;;;;;;24.40;4.65;;;13.80;99.90;;;13.18;100.00;100644.25;4170223;28;20021;-71
2022/12/23 06:49:26;;;;;;;17.20;3.90;;;13.90;99.90;;;13.18;100.00;100650.38;4169530;28;20017;-71
2022/12/23 06:51:27;;;;;;;22.42;4.57;;;13.90;99.90;;;13.13;100.00;100650.06;4168970;28;20214;-71
2022/12/23 06:53:28;;;;;;;17.23;4.20;;;13.80;99.90;;;13.22;100.00;100654.31;4170133;28;20598;-71
2022/12/23 06:55:29;;;;;;;23.15;4.47;;;13.90;99.90;;;13.16;100.00;100641.78;4169683;28;20036;-71
2022/12/23 06:57:29;;;;;;;21.20;3.63;;;13.80;99.90;;;13.13;100.00;100626.25;4170156;28;20029;-71
2022/12/23 06:59:30;;;;;;;22.70;4.50;;;13.80;99.90;;;13.14;100.00;100600.59;4169065;28;20025;-71
2022/12/23 07:01:31;;;;;;;16.48;3.83;;;13.80;99.90;;;13.09;100.00;100579.91;4169869;28;20026;-71
2022/12/23 07:03:32;;;;;;;25.92;3.83;;;13.80;99.90;;;13.05;100.00;100613.00;4168813;28;20063;-71
2022/12/23 07:05:34;;;;;;;20.60;4.03;;;13.80;99.90;;;13.07;100.00;100626.06;4168816;28;20030;-71
2022/12/23 07:07:36;;;;;;;25.52;4.05;;;13.80;99.90;;;13.10;100.00;100605.41;4169989;28;20033;-71
2022/12/23 07:09:36;;;;;;;23.75;5.10;;;13.80;99.90;;;13.03;100.00;100598.28;4169825;28;20067;-71
2022/12/23 07:11:37;;;;;;;23.88;3.53;;;13.80;99.90;;;13.05;100.00;100613.00;4152354;28;20030;-71
2022/12/23 07:13:38;;;;;;;25.90;4.25;;;13.80;99.90;;;13.06;100.00;100609.34;4169872;28;20068;-71
2022/12/23 07:15:39;;;;;;;22.33;6.43;;;13.70;99.90;;;13.04;100.00;100621.97;4169474;28;20123;-71
2022/12/23 07:17:40;;;;;;;24.15;4.60;;;13.70;99.90;;;12.97;100.00;100626.28;4169475;28;20025;-71
2022/12/23 07:19:41;;;;;;;30.27;4.97;;;13.70;99.90;;;13.03;100.00;100625.59;4152137;28;20072;-71
2022/12/23 07:21:42;;;;;;;27.08;5.72;;;13.80;99.90;;;12.98;100.00;100622.66;4169758;28;20032;-71
2022/12/23 07:23:43;;;;;;;28.98;5.72;;;13.70;99.90;;;13.00;100.00;100615.34;4169748;28;20030;-71
2022/12/23 07:25:43;;;;;;;32.05;6.63;;;13.70;99.90;;;12.94;100.00;100625.81;4169507;28;20032;-71
2022/12/23 07:27:44;;;;;;;34.58;6.90;;;13.70;99.90;;;12.92;100.00;100615.41;4168605;28;20088;-71
2022/12/23 07:29:45;;;;;;;34.80;6.65;;;13.70;99.90;;;13.00;100.00;100622.47;4169691;28;20493;-71
2022/12/23 07:31:46;;;;;;;37.38;7.75;;;13.70;99.90;;;12.89;100.00;100596.41;4168367;28;20496;-71
2022/12/23 07:33:47;;;;;;;42.95;8.50;;;13.70;99.90;;;12.88;100.00;100613.25;4168550;28;20022;-71
2022/12/23 07:35:48;;;;;;;40.63;7.50;;;13.60;99.90;;;12.92;100.00;100593.41;4169708;28;20033;-71
2022/12/23 07:37:54;;;;;;;38.80;7.90;;;13.60;99.90;;;12.86;100.00;100580.84;4151854;28;20073;-71
2022/12/23 07:39:55;;;;;;;41.13;8.43;;;13.60;99.90;;;12.81;100.00;100589.34;4168477;28;20032;-71
2022/12/23 07:41:56;;;;;;;41.63;7.88;;;13.60;99.90;;;12.77;100.00;100596.78;4168136;28;20057;-71
2022/12/23 07:43:57;;;;;;;41.63;8.63;;;13.50;99.90;;;12.77;100.00;100606.56;4169555;28;20553;-71
2022/12/23 07:45:58;;;;;;;40.30;6.95;;;13.50;99.90;;;12.76;100.00;100594.31;4169430;28;20033;-71
2022/12/23 07:48:01;;;;;;;36.63;7.90;;;13.50;99.90;;;12.74;100.00;100614.84;4168011;28;20021;-71
2022/12/23 07:50:02;;;;;;;51.17;8.93;;;13.50;99.90;;;12.66;100.00;100597.16;4169212;28;20025;-71
2022/12/23 07:52:03;;;;;;;39.70;8.32;;;13.40;99.90;;;12.67;100.00;100603.28;4169472;28;20116;-71
2022/12/23 07:54:04;;;;;;;45.25;8.93;;;13.40;99.90;;;12.66;100.00;100597.16;4169194;28;20025;-71
2022/12/23 07:56:05;;;;;;;34.85;7.13;;;13.40;99.90;;;12.58;100.00;100596.38;4169526;28;20030;-71
2022/12/23 07:58:07;;;;;;;43.53;8.88;;;13.40;99.90;;;12.57;100.00;100590.25;4169043;28;20025;-71
2022/12/23 08:00:13;;;;;;;31.13;6.78;;;13.30;99.90;;;12.62;100.00;100608.28;4169237;28;20039;-71
2022/12/23 08:02:13;;;;;;;35.30;6.70;;;13.40;99.90;;;12.68;100.00;100607.59;4167733;28;20481;-71
2022/12/23 08:04:14;;;;;;;40.83;6.35;;;13.40;99.90;;;12.64;100.00;100579.81;4169083;28;20025;-71
2022/12/23 08:06:16;;;;;;;33.15;5.82;;;13.40;99.90;;;12.67;100.00;100572.34;4168929;28;20029;-71
2022/12/23 08:08:16;;;;;;;26.45;5.93;;;13.40;99.90;;;12.69;100.00;100577.50;4169282;28;20025;-71
2022/12/23 08:10:17;;;;;;;43.55;6.25;;;13.40;99.90;;;12.74;100.00;100572.50;4169136;28;20021;-71
2022/12/23 08:12:18;;;;;;;33.38;6.47;;;13.50;99.90;;;12.74;100.00;100569.84;4168912;28;20110;-71
2022/12/23 08:14:19;;;;;;;27.73;4.15;;;13.50;99.90;;;12.71;100.00;100572.84;4167480;28;20483;-71
2022/12/23 08:16:20;;;;;;;29.30;4.03;;;13.40;99.90;;;12.75;100.00;100576.78;4169064;28;20058;-71
2022/12/23 08:18:21;;;;;;;27.52;4.38;;;13.50;99.90;;;12.72;100.00;100587.72;4167641;28;20029;-71
2022/12/23 08:20:22;;;;;;;27.88;5.20;;;13.50;99.90;;;12.72;100.00;100587.72;4168821;28;20533;-71
2022/12/23 08:22:23;;;;;;;19.05;3.97;;;13.50;99.90;;;12.71;100.00;100572.84;4167582;28;20036;-71
2022/12/23 08:24:24;;;;;;;18.40;4.38;;;13.50;99.90;;;12.71;100.00;100572.84;4167843;28;20030;-71
2022/12/23 08:26:26;;;;;;;27.15;3.72;;;13.50;99.90;;;12.68;100.00;100568.72;4169086;28;20071;-71
2022/12/23 08:28:28;;;;;;;19.33;3.08;;;13.50;99.90;;;12.68;100.00;100573.19;4168823;28;20025;-71
2022/12/23 08:30:28;;;;;;;19.65;3.65;;;13.40;99.90;;;12.66;100.00;100569.91;4168674;28;20025;-71
2022/12/23 08:32:29;;;;;;;22.08;4.65;;;13.40;99.90;;;12.74;100.00;100556.59;4168967;28;20040;-71
2022/12/23 08:34:30;;;;;;;20.45;4.70;;;13.40;99.90;;;12.74;100.00;100562.72;4168784;28;20061;-71
2022/12/23 08:36:34;;;;;;;19.88;3.97;;;13.40;99.90;;;12.70;100.00;100552.66;4167692;28;20515;-72
2022/12/23 08:38:36;;;;;;;17.20;4.13;;;13.50;99.90;;;12.65;100.00;100539.97;4168602;28;20108;-71
2022/12/23 08:40:39;;;;;;;19.40;4.10;;;13.50;99.90;;;12.69;100.00;100540.44;4168742;28;20039;-71
2022/12/23 08:42:40;;;;;;;22.48;3.97;;;13.40;99.90;;;12.68;100.00;100525.53;4168634;28;20052;-71
2022/12/23 08:44:41;;;;;;;23.70;4.07;;;13.50;99.90;;;12.68;100.00;100536.13;4168834;28;20034;-71
2022/12/23 08:46:42;;;;;;;28.02;5.40;;;13.40;99.90;;;12.67;100.00;100558.28;4168307;28;20528;-71
2022/12/23 08:48:43;;;;;;;18.25;4.40;;;13.40;99.90;;;12.69;100.00;100570.34;4167696;28;20553;-71
2022/12/23 08:50:45;;;;;;;31.23;5.25;;;13.50;99.90;;;12.71;100.00;100568.38;4167528;28;20026;-71
2022/12/23 08:52:46;;;;;;;30.52;7.03;;;13.50;99.90;;;12.69;100.00;100564.25;4167433;28;20402;-71
2022/12/23 08:54:47;;;;;;;27.27;6.55;;;13.50;99.90;;;12.78;100.00;100553.44;4150827;28;20029;-71
2022/12/23 08:56:49;;;;;;;33.22;6.50;;;13.50;99.90;;;12.77;100.00;100546.50;4168407;28;20038;-71
2022/12/23 08:58:52;;;;;;;29.23;6.10;;;13.50;99.90;;;12.75;100.00;100539.75;4167582;28;20033;-71
2022/12/23 09:00:53;;;;;;;33.03;6.75;;;13.50;99.90;;;12.71;100.00;100543.72;4167296;28;20112;-71